Latest Weather Observations for Tewantin

IDQ60901

Issued at 7:15 pm EST Thursday 23 October 2014 (issued every 10 minutes, with the page automatically refreshed every 10 minutes)

About weather observations | Map of Brisbane area stations | Latest observations for Brisbane area | Other Formats
Station Details ID: 040908 Name: TEWANTIN RSL PARK Lat: -26.39 Lon: 153.04 Height: 6.4 m
Data from the previous 72 hours. | See also: Recent months at Tewantin
Date/Time
EST
Tmp

°C
App
Tmp
°C
Dew
Point
°C
Rel
Hum
%
Delta-T

°C
Wind Press
QNH
hPa
Press
MSL
hPa
Rain
since
9 am
mm
Dir
 
Spd
km/h
Gust
km/h
Spd
kts
Gust
kts
23/07:00pm 19.6 19.7 13.8 69 3.3 NE 6 7 3 4 1020.4 1020.4 0.0
23/06:30pm 20.1 20.2 13.8 67 3.6 NNE 6 11 3 6 1019.9 1019.9 0.0
23/06:00pm 20.6 19.8 14.0 66 3.8 NNE 11 17 6 9 1019.3 1019.3 0.0
23/05:30pm 20.9 20.1 14.1 65 3.9 NE 11 19 6 10 1019.1 1019.1 0.0
23/05:00pm 21.3 20.1 14.0 63 4.2 NE 13 20 7 11 1018.9 1018.9 0.0
23/04:30pm 21.7 19.7 13.9 61 4.5 NE 17 22 9 12 1018.6 1018.6 0.0
23/04:00pm 22.0 20.4 13.9 60 4.7 NE 15 22 8 12 1018.4 1018.4 0.0
23/03:30pm 22.3 21.1 13.9 59 4.9 NE 13 20 7 11 1018.4 1018.4 0.0
23/03:00pm 22.3 20.2 12.3 53 5.6 NE 15 24 8 13 1018.3 1018.3 0.0
23/02:30pm 23.1 21.5 13.8 55 5.4 NE 15 26 8 14 1018.6 1018.6 0.0
23/02:00pm 23.0 20.9 13.5 55 5.5 NE 17 24 9 13 1018.7 1018.7 0.0
23/01:30pm 23.3 21.7 13.8 55 5.5 NE 15 20 8 11 1019.1 1019.1 0.0
23/01:00pm 22.3 19.6 11.7 51 5.9 NNE 17 22 9 12 1019.6 1019.6 0.0
23/12:30pm 23.6 22.2 13.5 53 5.9 NE 13 20 7 11 1020.0 1020.0 0.0
23/12:00pm 22.9 21.0 13.1 54 5.6 NNE 15 22 8 12 1020.6 1020.6 0.0
23/11:30am 22.7 21.4 13.7 56 5.2 NE 13 22 7 12 1021.2 1021.2 0.0
23/11:00am 22.8 21.4 12.1 51 6.0 ESE 11 17 6 9 1021.6 1021.6 0.0
23/10:30am 23.0 22.3 12.0 50 6.2 E 7 17 4 9 1021.8 1021.8 0.0
23/10:00am 22.8 21.8 12.4 52 5.9 E 9 15 5 8 1022.2 1022.2 0.0
23/09:30am 22.5 20.8 11.3 49 6.2 SE 11 17 6 9 1022.3 1022.3 0.0
23/09:00am 21.5 20.7 11.2 52 5.7 ENE 6 11 3 6 1022.5 1022.5 -
23/08:30am 22.3 21.4 12.5 53 5.5 ESE 9 15 5 8 1022.4 1022.4 -
23/08:00am 21.7 21.2 12.8 57 5.0 S 7 11 4 6 1022.5 1022.5 -
23/07:30am 20.9 20.7 13.6 63 4.2 S 7 11 4 6 1022.4 1022.4 -
23/07:00am 18.9 19.8 14.0 73 2.8 SSW 2 9 1 5 1022.3 1022.3 -
23/06:30am 15.8 16.2 12.5 81 1.8 SW 2 7 1 4 1022.2 1022.2 -
23/06:00am 15.0 16.1 13.4 90 0.9 CALM 0 0 0 0 1022.1 1022.1 -
23/05:30am 14.3 15.0 12.3 88 1.1 SW 0 6 0 3 1022.0 1022.0 -
23/05:00am 14.4 15.1 12.3 87 1.1 CALM 0 0 0 0 1021.8 1021.8 -
23/04:30am 15.1 15.9 12.6 85 1.4 CALM 0 0 0 0 1021.7 1021.7 -
23/04:00am 15.5 16.3 12.6 83 1.6 CALM 0 0 0 0 1021.5 1021.5 -
23/03:30am 16.0 15.7 12.7 81 1.8 SSW 6 9 3 5 1021.3 1021.3 -
23/03:00am 16.3 16.8 12.7 79 2.0 SW 2 7 1 4 1021.3 1021.3 0.0
23/02:30am 16.2 16.0 12.9 81 1.8 SSW 6 7 3 4 1021.2 1021.2 -
23/02:00am 16.4 16.1 12.8 79 2.0 SSW 6 9 3 5 1021.3 1021.3 -
23/01:30am 16.6 16.1 12.6 77 2.2 SW 7 7 4 4 1021.5 1021.5 -
23/01:00am 17.3 17.0 12.8 75 2.5 SSW 6 7 3 4 1021.8 1021.8 -
23/12:30am 18.3 17.9 12.5 69 3.2 S 6 11 3 6 1022.2 1022.2 -
23/12:00am 19.2 18.8 12.5 65 3.7 E 6 11 3 6 1022.5 1022.5 -
 
Date/Time
EST
Tmp

°C
App
Tmp
°C
Dew
Point
°C
Rel
Hum
%
Delta-T

°C
Wind Press
QNH
hPa
Press
MSL
hPa
Rain
since
9 am
mm
Dir
 
Spd
km/h
Gust
km/h
Spd
kts
Gust
kts
22/11:30pm 19.5 18.5 12.3 63 4.0 E 9 13 5 7 1022.8 1022.8 -
22/11:00pm 19.8 19.3 12.6 63 4.0 ESE 7 13 4 7 1023.1 1023.1 -
22/10:30pm 19.7 18.4 12.5 63 4.0 ESE 11 19 6 10 1023.3 1023.3 -
22/10:00pm 19.8 18.3 13.0 65 3.8 E 13 20 7 11 1023.2 1023.2 -
22/09:30pm 19.7 18.1 12.9 65 3.8 ESE 13 19 7 10 1023.4 1023.4 -
22/09:00pm 19.7 18.1 12.7 64 3.9 ESE 13 22 7 12 1023.4 1023.4 0.0
22/08:30pm 19.9 18.3 12.7 63 4.1 ESE 13 20 7 11 1023.4 1023.4 -
22/08:00pm 19.7 18.6 13.2 66 3.7 ESE 11 20 6 11 1023.2 1023.2 -
22/07:30pm 19.7 18.1 12.9 65 3.8 ESE 13 17 7 9 1023.1 1023.1 -
22/07:00pm 19.8 18.5 12.6 63 4.0 ESE 11 20 6 11 1023.0 1023.0 -
22/06:30pm 19.7 18.6 12.0 61 4.3 SE 9 15 5 8 1022.8 1022.8 -
22/06:00pm 19.8 18.3 11.8 60 4.4 SE 11 19 6 10 1022.6 1022.6 -
22/05:30pm 20.2 18.0 12.2 60 4.5 ESE 15 30 8 16 1022.5 1022.5 -
22/05:00pm 20.5 18.0 12.2 59 4.6 ESE 17 24 9 13 1022.5 1022.5 -
22/04:30pm 20.6 17.8 11.5 56 5.0 ESE 17 30 9 16 1022.4 1022.4 -
22/04:00pm 21.0 18.0 11.9 56 5.1 ESE 19 32 10 17 1022.3 1022.3 -
22/03:30pm 21.3 18.0 11.6 54 5.4 E 20 33 11 18 1022.2 1022.2 -
22/03:00pm 21.6 18.4 11.9 54 5.4 ESE 20 32 11 17 1022.2 1022.2 -
22/10:30am 22.4 19.6 11.5 50 6.1 SSE 17 26 9 14 1024.9 1024.9 0.0
22/10:00am 22.0 18.6 11.1 50 6.0 SE 20 32 11 17 1025.0 1025.0 0.0
22/09:30am 21.3 19.1 12.2 56 5.1 SSE 15 30 8 16 1025.1 1025.1 0.0
22/09:00am 20.8 19.2 14.0 65 3.9 S 15 26 8 14 1025.1 1025.1 4.6
22/08:30am 20.6 18.8 14.5 68 3.6 S 17 24 9 13 1025.1 1025.1 4.6
22/08:00am 19.4 18.2 14.0 71 3.1 S 13 22 7 12 1025.0 1025.0 4.6
22/07:30am 18.6 17.8 15.1 80 2.0 S 13 20 7 11 1025.0 1025.0 4.6
22/07:00am 17.6 17.4 15.6 88 1.2 S 11 19 6 10 1024.6 1024.6 4.6
22/06:30am 17.0 17.7 16.0 94 0.6 SSW 7 13 4 7 1024.4 1024.4 4.6
22/06:00am 16.4 16.6 15.8 96 0.3 SSW 9 15 5 8 1024.2 1024.2 4.6
22/05:30am 16.4 16.6 15.8 96 0.4 SSW 9 17 5 9 1024.2 1024.2 4.6
22/05:00am 16.6 16.9 16.1 97 0.3 SSW 9 13 5 7 1023.9 1023.9 4.6
22/04:30am 16.6 16.9 16.1 97 0.3 SSW 9 15 5 8 1023.6 1023.6 4.6
22/04:00am 16.6 17.0 16.3 98 0.2 SSW 9 13 5 7 1023.6 1023.6 4.6
22/03:30am 16.5 16.1 16.2 98 0.2 S 13 22 7 12 1023.8 1023.8 4.4
22/03:00am 16.6 17.0 16.3 98 0.2 S 9 17 5 9 1023.7 1023.7 4.4
22/02:30am 16.8 16.9 16.5 98 0.2 S 11 19 6 10 1024.1 1024.1 4.4
22/02:00am 16.9 17.3 16.4 97 0.3 S 9 15 5 8 1024.2 1024.2 4.0
22/01:30am 17.2 17.7 16.6 96 0.4 S 9 19 5 10 1024.9 1024.9 3.8
22/01:00am 17.6 17.7 16.6 94 0.6 S 11 15 6 8 1024.9 1024.9 3.4
22/12:30am 17.7 17.6 16.9 95 0.5 S 13 22 7 12 1025.3 1025.3 3.4
22/12:00am 17.6 16.7 16.8 95 0.5 S 17 28 9 15 1025.7 1025.7 3.2
 
Date/Time
EST
Tmp

°C
App
Tmp
°C
Dew
Point
°C
Rel
Hum
%
Delta-T

°C
Wind Press
QNH
hPa
Press
MSL
hPa
Rain
since
9 am
mm
Dir
 
Spd
km/h
Gust
km/h
Spd
kts
Gust
kts
21/11:30pm 18.1 17.4 16.4 90 1.0 S 15 26 8 14 1025.9 1025.9 2.0
21/11:00pm 18.6 19.2 16.8 89 1.1 S 9 13 5 7 1026.2 1026.2 1.8
21/10:30pm 18.7 18.5 16.8 89 1.1 SSE 13 24 7 13 1026.5 1026.5 1.8
21/10:00pm 19.2 18.1 16.4 84 1.7 SSE 17 37 9 20 1026.6 1026.6 1.4
21/09:30pm 19.5 19.7 16.7 84 1.7 SSE 11 17 6 9 1026.6 1026.6 1.4
21/09:00pm 19.1 17.4 16.3 84 1.7 SE 20 37 11 20 1026.6 1026.6 1.4
21/08:30pm 20.3 19.2 15.3 73 3.0 SSE 15 26 8 14 1026.4 1026.4 1.0
21/08:00pm 20.3 18.8 16.3 78 2.4 SSE 19 33 10 18 1026.2 1026.2 1.0
21/07:30pm 19.6 18.9 16.4 82 1.9 SE 15 30 8 16 1026.0 1026.0 1.0
21/07:00pm 20.7 19.5 16.1 75 2.7 SE 17 26 9 14 1025.9 1025.9 0.6
21/06:30pm 20.7 19.3 16.5 77 2.5 ESE 19 30 10 16 1025.6 1025.6 0.6
21/06:00pm 20.4 19.6 17.0 81 2.1 SE 17 28 9 15 1025.3 1025.3 0.6
21/05:30pm 20.0 20.3 17.8 87 1.4 SSE 13 22 7 12 1025.1 1025.1 0.6
21/05:00pm 21.6 20.2 16.6 73 3.0 SSE 19 35 10 19 1024.6 1024.6 0.0
21/04:30pm 21.4 19.9 16.4 73 3.0 ESE 19 32 10 17 1024.5 1024.5 0.0
21/04:00pm 21.3 19.1 16.9 76 2.7 ESE 24 35 13 19 1024.3 1024.3 0.0
21/03:30pm 22.6 20.9 17.3 72 3.3 SE 22 44 12 24 1023.9 1023.9 0.0
21/03:00pm 23.4 21.9 16.4 64 4.3 SSE 19 35 10 19 1023.9 1023.9 0.0
21/02:30pm 22.8 22.0 17.0 70 3.6 SSE 17 30 9 16 1024.1 1024.1 0.0
21/02:00pm 22.0 22.1 18.4 80 2.2 SE 15 24 8 13 1024.5 1024.5 0.0
21/01:30pm 20.0 19.5 17.8 87 1.4 SE 17 35 9 19 1024.9 1024.9 0.0
21/01:00pm 20.7 20.5 17.5 82 2.0 SE 15 26 8 14 1025.1 1025.1 0.0
21/12:30pm 21.9 21.4 16.8 73 3.1 SSE 15 24 8 13 1025.3 1025.3 0.0
21/12:00pm 22.2 21.5 16.5 70 3.4 SSE 15 26 8 14 1025.6 1025.6 0.0
21/11:30am 21.8 21.3 17.0 74 2.9 S 15 26 8 14 1026.1 1026.1 0.0
21/11:00am 21.5 20.3 16.0 71 3.3 S 17 28 9 15 1026.3 1026.3 0.0
21/10:30am 22.3 22.1 16.6 70 3.5 SSE 13 24 7 13 1026.5 1026.5 0.0
21/10:00am 22.2 21.5 16.5 70 3.4 SSE 15 26 8 14 1026.5 1026.5 0.0
21/09:30am 22.6 21.6 15.7 65 4.1 SE 15 28 8 15 1026.6 1026.6 0.0
21/09:00am 23.0 22.8 15.6 63 4.4 SE 11 20 6 11 1026.6 1026.6 0.0
21/08:30am 22.1 21.3 15.0 64 4.2 S 13 17 7 9 1026.6 1026.6 0.0
21/08:00am 21.5 20.4 14.4 64 4.1 SE 13 26 7 14 1026.5 1026.5 0.0
21/07:30am 21.4 19.9 14.1 63 4.2 ESE 15 20 8 11 1026.2 1026.2 0.0
21/07:00am 21.9 20.8 14.3 62 4.4 SE 13 22 7 12 1025.8 1025.8 0.0
21/06:30am 21.7 20.7 13.3 59 4.8 SE 11 20 6 11 1025.4 1025.4 0.0
21/06:00am 21.1 20.6 13.8 63 4.2 ESE 9 17 5 9 1025.3 1025.3 0.0
21/05:30am 20.3 19.7 13.5 65 3.9 ESE 9 13 5 7 1025.1 1025.1 0.0
21/05:00am 19.9 19.0 13.6 67 3.6 ESE 11 17 6 9 1024.6 1024.6 0.0
21/04:30am 19.9 19.0 13.6 67 3.6 ESE 11 17 6 9 1024.5 1024.5 0.0
21/04:00am 20.2 18.6 12.9 63 4.1 ESE 13 22 7 12 1024.2 1024.2 0.0
21/03:30am 20.1 18.4 12.6 62 4.2 ESE 13 17 7 9 1024.5 1024.5 0.0
21/03:00am 20.2 18.3 11.9 59 4.6 ESE 13 20 7 11 1024.6 1024.6 0.0
21/02:30am 20.4 18.6 12.1 59 4.6 ESE 13 22 7 12 1024.8 1024.8 0.0
21/02:00am 20.5 18.3 12.2 59 4.6 ESE 15 24 8 13 1024.8 1024.8 0.0
21/01:30am 20.7 18.7 12.7 60 4.5 ESE 15 22 8 12 1025.1 1025.1 0.0
21/01:00am 20.7 19.3 13.4 63 4.2 ESE 13 17 7 9 1025.5 1025.5 0.0
21/12:30am 20.7 18.9 13.2 62 4.3 ESE 15 22 8 12 1025.8 1025.8 0.0
21/12:00am 20.8 18.9 13.0 61 4.4 ESE 15 24 8 13 1026.1 1026.1 0.0
 
Date/Time
EST
Tmp

°C
App
Tmp
°C
Dew
Point
°C
Rel
Hum
%
Delta-T

°C
Wind Press
QNH
hPa
Press
MSL
hPa
Rain
since
9 am
mm
Dir
 
Spd
km/h
Gust
km/h
Spd
kts
Gust
kts
20/11:30pm 20.8 19.0 13.3 62 4.3 ESE 15 26 8 14 1026.2 1026.2 0.0
20/11:00pm 20.8 19.1 13.5 63 4.2 ESE 15 24 8 13 1026.3 1026.3 0.0
20/10:30pm 20.8 18.8 14.0 65 3.9 ESE 17 24 9 13 1026.4 1026.4 0.0
20/10:00pm 20.8 19.6 14.0 65 3.9 ESE 13 19 7 10 1026.3 1026.3 0.0
20/09:30pm 20.6 20.4 14.7 69 3.5 ESE 9 17 5 9 1026.1 1026.1 0.0
20/09:00pm 20.1 20.0 14.0 68 3.5 SE 7 11 4 6 1025.8 1025.8 0.0
20/08:30pm 20.0 19.9 13.9 68 3.5 SE 7 11 4 6 1025.5 1025.5 0.0
20/08:00pm 19.8 20.0 14.2 70 3.2 E 6 11 3 6 1025.0 1025.0 0.0
20/07:30pm 20.0 20.1 14.4 70 3.3 SE 7 9 4 5 1024.7 1024.7 0.0

Latest Capital City Observations: Canberra | Sydney | Melbourne | Brisbane | Adelaide | Perth | Hobart | Darwin

Other Formats:

Comma delimited format used in spreadsheet applications
http://www.bom.gov.au/fwo/IDQ60901/IDQ60901.94570.axf

JavaScript Object Notation format (JSON) in row-major order
http://www.bom.gov.au/fwo/IDQ60901/IDQ60901.94570.json